Time;durP1;ratioP1;P1;durP2;ratioP2;P2;SDS_P1;SDS_P2;PMS_P1;PMS_P2;Temp;Humidity;BMP_temperature;BMP_pressure;BME280_temperature;BME280_humidity;BME280_pressure;Samples;Min_cycle;Max_cycle;Signal;HPM_P1;HPM_P2
2022/10/16 00:00:36;;;;;;;31.65;10.52;;;12.00;99.90;;;;;;5014385;28;20535;-70
2022/10/16 00:03:02;;;;;;;32.40;9.25;;;11.90;99.90;;;;;;5014036;28;20058;-70
2022/10/16 00:05:28;;;;;;;24.70;10.27;;;11.90;99.90;;;;;;5013507;28;20050;-70
2022/10/16 00:07:54;;;;;;;27.88;8.95;;;11.90;99.90;;;;;;5014164;28;20033;-70
2022/10/16 00:10:20;;;;;;;29.77;8.05;;;11.80;99.90;;;;;;5013941;28;20076;-70
2022/10/16 00:12:45;;;;;;;31.52;8.15;;;11.90;99.90;;;;;;5013718;28;20449;-70
2022/10/16 00:15:11;;;;;;;29.42;8.15;;;11.90;99.90;;;;;;5014177;28;20022;-70
2022/10/16 00:17:37;;;;;;;26.13;8.77;;;11.90;99.90;;;;;;5013896;28;20017;-70
2022/10/16 00:20:03;;;;;;;29.85;8.27;;;11.90;99.90;;;;;;5013500;28;20478;-70
2022/10/16 00:22:28;;;;;;;22.75;6.18;;;11.90;99.90;;;;;;5013566;28;20477;-70
2022/10/16 00:24:54;;;;;;;28.45;6.75;;;11.80;99.90;;;;;;5013782;28;20072;-70
2022/10/16 00:27:19;;;;;;;30.80;6.85;;;11.90;99.90;;;;;;5013295;28;20025;-70
2022/10/16 00:29:49;;;;;;;31.42;6.22;;;11.90;99.90;;;;;;5014279;28;20038;-70
2022/10/16 00:32:14;;;;;;;26.98;5.35;;;11.80;99.90;;;;;;5013516;28;20508;-70
2022/10/16 00:34:40;;;;;;;23.63;6.40;;;11.80;99.90;;;;;;5013785;28;20030;-70
2022/10/16 00:37:05;;;;;;;28.35;5.72;;;11.80;99.90;;;;;;5013591;28;20026;-70
2022/10/16 00:39:31;;;;;;;19.15;4.90;;;11.90;99.90;;;;;;5013507;28;20029;-70
2022/10/16 00:41:56;;;;;;;33.20;5.57;;;11.90;99.90;;;;;;5013136;28;20041;-70
2022/10/16 00:44:40;;;;;;;23.05;5.63;;;11.80;99.90;;;;;;5013535;28;20042;-70
2022/10/16 00:47:19;;;;;;;20.48;4.20;;;11.80;99.90;;;;;;5013252;28;20026;-70
2022/10/16 00:49:46;;;;;;;25.23;4.30;;;11.80;99.90;;;;;;5013887;28;20035;-70
2022/10/16 00:52:14;;;;;;;24.65;4.43;;;11.80;99.90;;;;;;5012900;28;20065;-69
2022/10/16 00:54:40;;;;;;;30.45;4.30;;;11.80;99.90;;;;;;5013739;28;20037;-70
2022/10/16 00:57:06;;;;;;;18.73;4.55;;;11.80;99.90;;;;;;5013458;28;20022;-71
2022/10/16 00:59:35;;;;;;;20.77;4.20;;;11.80;99.90;;;;;;5013548;28;20100;-70
2022/10/16 01:02:03;;;;;;;23.02;5.55;;;11.80;99.90;;;;;;5013394;28;20072;-70
2022/10/16 01:04:34;;;;;;;23.75;4.60;;;11.80;99.90;;;;;;5013281;28;20500;-70
2022/10/16 01:07:34;;;;;;;25.52;4.00;;;11.70;99.90;;;;;;5013202;28;20084;-69
2022/10/16 01:10:09;;;;;;;23.30;4.00;;;11.70;99.90;;;;;;5008709;28;20049;-70
2022/10/16 01:12:59;;;;;;;28.17;4.55;;;11.70;99.90;;;;;;5013219;28;20026;-70
2022/10/16 01:15:34;;;;;;;17.00;3.53;;;11.70;99.90;;;;;;5012810;28;20022;-70
2022/10/16 01:18:11;;;;;;;25.52;5.35;;;11.70;99.90;;;;;;5013241;28;20026;-70
2022/10/16 01:20:49;;;;;;;15.63;3.28;;;11.70;99.90;;;;;;5011473;28;20032;-70
2022/10/16 01:23:27;;;;;;;29.52;4.50;;;11.80;99.90;;;;;;4993645;28;20072;-70
2022/10/16 01:26:07;;;;;;;25.77;4.60;;;11.80;99.90;;;;;;4993784;28;20101;-70
2022/10/16 01:28:45;;;;;;;20.58;3.97;;;11.70;99.90;;;;;;4993663;28;20014;-70
2022/10/16 01:31:14;;;;;;;26.67;4.85;;;11.70;99.90;;;;;;4993342;28;20030;-70
2022/10/16 01:33:47;;;;;;;30.67;4.63;;;11.70;99.90;;;;;;5004044;28;20524;-70
2022/10/16 01:36:24;;;;;;;19.73;4.28;;;11.70;99.90;;;;;;5013399;28;20049;-70
2022/10/16 01:38:53;;;;;;;25.67;4.55;;;11.80;99.90;;;;;;5013093;28;20137;-70
2022/10/16 01:41:28;;;;;;;32.38;4.82;;;11.70;99.90;;;;;;5012620;28;20018;-70
2022/10/16 01:44:11;;;;;;;23.27;4.40;;;11.80;99.90;;;;;;5012811;28;20052;-70
2022/10/16 01:46:39;;;;;;;22.70;3.90;;;11.80;99.90;;;;;;5013135;28;20037;-70
2022/10/16 01:49:07;;;;;;;21.38;4.25;;;11.80;99.90;;;;;;5012569;28;20101;-70
2022/10/16 01:51:36;;;;;;;18.58;4.85;;;11.80;99.90;;;;;;5012842;28;20055;-70
2022/10/16 01:54:02;;;;;;;20.23;5.28;;;11.70;99.90;;;;;;5012846;28;20029;-70
2022/10/16 01:56:29;;;;;;;23.33;4.20;;;11.80;99.90;;;;;;5012790;28;20045;-70
2022/10/16 01:59:03;;;;;;;26.23;4.93;;;11.80;99.90;;;;;;5012588;28;20026;-70
2022/10/16 02:01:32;;;;;;;22.70;5.13;;;11.70;99.90;;;;;;5016211;28;20097;-70
2022/10/16 02:04:08;;;;;;;15.63;4.43;;;11.70;99.90;;;;;;5016224;28;20117;-70
2022/10/16 02:06:34;;;;;;;29.05;4.78;;;11.70;99.90;;;;;;5016372;28;20025;-70
2022/10/16 02:09:00;;;;;;;29.48;4.65;;;11.80;99.90;;;;;;5016196;28;20017;-70
2022/10/16 02:11:25;;;;;;;24.80;4.15;;;11.70;99.90;;;;;;5015573;28;20101;-70
2022/10/16 02:13:58;;;;;;;30.67;4.93;;;11.80;99.90;;;;;;4999663;28;20026;-70
2022/10/16 02:16:37;;;;;;;23.20;4.13;;;11.70;99.90;;;;;;4996817;28;20041;-70
2022/10/16 02:19:04;;;;;;;25.58;4.95;;;11.70;99.90;;;;;;5000348;28;20114;-70
2022/10/16 02:21:38;;;;;;;24.40;5.15;;;11.80;99.90;;;;;;5015970;28;20096;-70
2022/10/16 02:24:38;;;;;;;16.92;4.15;;;11.70;99.90;;;;;;5015477;28;20034;-70
2022/10/16 02:27:09;;;;;;;42.92;4.80;;;11.60;99.90;;;;;;5016157;28;20121;-70
2022/10/16 02:29:44;;;;;;;35.13;6.18;;;11.70;99.90;;;;;;5016056;28;20432;-70
2022/10/16 02:32:12;;;;;;;23.23;6.72;;;11.70;99.90;;;;;;5015317;28;20054;-70
2022/10/16 02:34:39;;;;;;;19.80;4.85;;;11.70;99.90;;;;;;5016030;28;20026;-70
2022/10/16 02:37:06;;;;;;;28.05;5.60;;;11.70;99.90;;;;;;5015928;28;20025;-71
2022/10/16 02:39:32;;;;;;;33.80;5.10;;;11.70;99.90;;;;;;5015755;28;20018;-70
2022/10/16 02:41:58;;;;;;;30.48;4.55;;;11.70;99.90;;;;;;5015408;28;20026;-70
2022/10/16 02:44:24;;;;;;;21.80;5.38;;;11.70;99.90;;;;;;5015305;28;20080;-70
2022/10/16 02:46:49;;;;;;;31.88;4.15;;;11.70;99.90;;;;;;5015497;28;20037;-70
2022/10/16 02:49:15;;;;;;;12.98;3.53;;;11.70;99.90;;;;;;5014225;28;20026;-70
2022/10/16 02:51:40;;;;;;;35.38;6.03;;;11.70;99.90;;;;;;5015338;28;20022;-70
2022/10/16 02:54:06;;;;;;;17.67;3.60;;;11.70;99.90;;;;;;5015303;28;20481;-70
2022/10/16 02:56:31;;;;;;;33.55;4.40;;;11.70;99.90;;;;;;5014877;28;20420;-70
2022/10/16 02:58:57;;;;;;;25.77;4.75;;;11.70;99.90;;;;;;5015405;28;20381;-70
2022/10/16 03:01:23;;;;;;;23.92;3.80;;;11.60;99.90;;;;;;5015708;28;20041;-71
2022/10/16 03:03:49;;;;;;;31.08;5.30;;;11.60;99.90;;;;;;5016078;28;20030;-70
2022/10/16 03:06:15;;;;;;;20.30;4.20;;;11.60;99.90;;;;;;5015390;28;20032;-70
2022/10/16 03:08:40;;;;;;;36.30;5.07;;;11.70;99.90;;;;;;5014683;28;20374;-70
2022/10/16 03:11:05;;;;;;;30.08;5.15;;;11.70;99.90;;;;;;5014656;28;20055;-71
2022/10/16 03:13:31;;;;;;;22.85;4.00;;;11.70;99.90;;;;;;5015064;28;20017;-71
2022/10/16 03:15:56;;;;;;;30.77;5.13;;;11.70;99.90;;;;;;5014959;28;20022;-70
2022/10/16 03:18:22;;;;;;;21.58;3.60;;;11.60;99.90;;;;;;5014940;28;20030;-70
2022/10/16 03:20:47;;;;;;;27.13;4.35;;;11.50;99.90;;;;;;5014338;28;20026;-70
2022/10/16 03:23:13;;;;;;;27.20;4.43;;;11.60;99.90;;;;;;5014674;28;20108;-70
2022/10/16 03:25:39;;;;;;;27.33;4.47;;;11.50;99.90;;;;;;5014745;28;20026;-70
2022/10/16 03:28:05;;;;;;;22.77;4.35;;;11.50;99.90;;;;;;5014799;28;20022;-70
2022/10/16 03:30:30;;;;;;;22.52;5.55;;;11.50;99.90;;;;;;5014747;28;20477;-71
2022/10/16 03:32:56;;;;;;;51.05;4.40;;;11.50;99.90;;;;;;5014432;28;20520;-70
2022/10/16 03:35:23;;;;;;;19.45;3.75;;;11.50;99.90;;;;;;5014168;28;20137;-70
2022/10/16 03:37:48;;;;;;;25.30;3.83;;;11.40;99.90;;;;;;5013138;28;20489;-70
2022/10/16 03:40:14;;;;;;;25.00;4.57;;;11.40;99.90;;;;;;5015134;28;20041;-70
2022/10/16 03:42:41;;;;;;;30.55;5.78;;;11.40;99.90;;;;;;5013785;28;20056;-70
2022/10/16 03:45:07;;;;;;;27.05;3.85;;;11.40;99.90;;;;;;5014810;28;20025;-70
2022/10/16 03:47:33;;;;;;;15.13;3.78;;;11.40;99.90;;;;;;5014455;28;20022;-71
2022/10/16 03:49:59;;;;;;;25.45;5.60;;;11.40;99.90;;;;;;5014241;28;20032;-70
2022/10/16 03:52:25;;;;;;;33.65;4.60;;;11.40;99.90;;;;;;5013725;28;20060;-70
2022/10/16 03:54:51;;;;;;;31.25;5.18;;;11.40;99.90;;;;;;5000272;28;20058;-70
2022/10/16 03:57:16;;;;;;;22.23;4.45;;;11.40;99.90;;;;;;4994703;28;20023;-71
2022/10/16 03:59:42;;;;;;;26.10;4.28;;;11.40;99.90;;;;;;4995155;28;20026;-70
2022/10/16 04:02:07;;;;;;;19.05;5.38;;;11.40;99.90;;;;;;4993954;28;20032;-70
2022/10/16 04:04:33;;;;;;;19.15;4.28;;;11.30;99.90;;;;;;4996803;28;20073;-70
2022/10/16 04:06:58;;;;;;;21.98;4.60;;;11.30;99.90;;;;;;5014031;28;20475;-70
2022/10/16 04:09:24;;;;;;;19.33;4.30;;;11.40;99.90;;;;;;5013625;28;20449;-70
2022/10/16 04:11:50;;;;;;;36.55;4.47;;;11.40;99.90;;;;;;5013905;28;20393;-70
2022/10/16 04:14:16;;;;;;;27.20;5.00;;;11.40;99.90;;;;;;5013835;28;20048;-70
2022/10/16 04:16:41;;;;;;;21.98;3.97;;;11.50;99.90;;;;;;5013971;28;20030;-70
2022/10/16 04:19:07;;;;;;;40.17;4.85;;;11.50;99.90;;;;;;5014157;28;20485;-71
2022/10/16 04:21:32;;;;;;;32.97;5.90;;;11.50;99.90;;;;;;5013335;28;20516;-70
2022/10/16 04:23:58;;;;;;;34.63;4.07;;;11.50;99.90;;;;;;5013209;28;20097;-70
2022/10/16 04:26:23;;;;;;;19.13;4.32;;;11.50;99.90;;;;;;5013803;28;20536;-70
2022/10/16 04:28:49;;;;;;;42.25;6.18;;;11.50;99.90;;;;;;5013749;28;20033;-70
2022/10/16 04:31:14;;;;;;;14.38;4.05;;;11.60;99.90;;;;;;5013671;28;20078;-70
2022/10/16 04:33:42;;;;;;;29.35;4.68;;;11.70;99.90;;;;;;5013830;28;20026;-70
2022/10/16 04:36:08;;;;;;;37.97;6.22;;;11.80;99.90;;;;;;5013206;28;20022;-70
2022/10/16 04:38:34;;;;;;;23.92;4.13;;;11.80;99.90;;;;;;5013611;28;20076;-70
2022/10/16 04:41:00;;;;;;;23.60;4.00;;;11.80;99.90;;;;;;5013897;28;20040;-70
2022/10/16 04:43:25;;;;;;;27.15;4.13;;;11.90;99.90;;;;;;5013536;28;20030;-71
2022/10/16 04:45:51;;;;;;;15.88;4.07;;;11.90;99.90;;;;;;5013607;28;20432;-70
2022/10/16 04:48:18;;;;;;;10.18;2.72;;;12.00;99.90;;;;;;5013236;28;20029;-70
2022/10/16 04:50:43;;;;;;;21.95;4.28;;;12.10;99.90;;;;;;5013737;28;20053;-71
2022/10/16 04:53:09;;;;;;;28.10;3.78;;;12.10;99.90;;;;;;5013386;28;20069;-70
2022/10/16 04:55:34;;;;;;;25.10;3.78;;;12.20;99.90;;;;;;5013724;28;20033;-70
2022/10/16 04:58:00;;;;;;;22.23;5.78;;;12.20;99.90;;;;;;5013671;28;20034;-71
2022/10/16 05:00:25;;;;;;;21.25;3.80;;;12.30;99.90;;;;;;5013445;28;20026;-70
2022/10/16 05:02:51;;;;;;;17.75;4.03;;;12.30;99.90;;;;;;5012853;28;20026;-70
2022/10/16 05:05:19;;;;;;;25.75;4.25;;;12.30;99.90;;;;;;5013649;28;20108;-70
2022/10/16 05:07:45;;;;;;;18.05;3.75;;;12.30;99.90;;;;;;5013463;28;20505;-70
2022/10/16 05:10:10;;;;;;;33.80;5.88;;;12.40;99.90;;;;;;5013334;28;20108;-70
2022/10/16 05:12:36;;;;;;;27.02;3.90;;;12.30;99.90;;;;;;5013191;28;20144;-70
2022/10/16 05:15:02;;;;;;;24.45;4.63;;;12.40;99.90;;;;;;5012741;28;20026;-70
2022/10/16 05:17:27;;;;;;;24.67;4.40;;;12.30;99.90;;;;;;5013552;28;20026;-70
2022/10/16 05:19:53;;;;;;;32.10;5.05;;;12.30;99.90;;;;;;5013752;28;20069;-70
2022/10/16 05:22:18;;;;;;;28.30;4.03;;;12.30;99.90;;;;;;5013172;28;20034;-71
2022/10/16 05:24:44;;;;;;;13.00;3.58;;;12.40;99.90;;;;;;5012654;28;20037;-70
2022/10/16 05:27:10;;;;;;;22.05;3.70;;;12.30;99.90;;;;;;5013726;28;20030;-70
2022/10/16 05:29:36;;;;;;;19.58;4.20;;;12.30;99.90;;;;;;5013387;28;20084;-70
2022/10/16 05:32:02;;;;;;;45.05;4.47;;;12.30;99.90;;;;;;5012679;28;20030;-70
2022/10/16 05:34:27;;;;;;;21.83;5.03;;;12.20;99.90;;;;;;5015905;28;20053;-70
2022/10/16 05:36:53;;;;;;;12.70;3.53;;;12.20;99.90;;;;;;5017331;28;20026;-70
2022/10/16 05:39:18;;;;;;;17.33;4.00;;;12.20;99.90;;;;;;5017112;28;20080;-70
2022/10/16 05:41:44;;;;;;;24.48;3.75;;;12.10;99.90;;;;;;5016697;28;20470;-70
2022/10/16 05:44:10;;;;;;;27.33;4.90;;;12.10;99.90;;;;;;5016511;28;20038;-70
2022/10/16 05:46:36;;;;;;;16.40;2.72;;;12.10;99.90;;;;;;5016225;28;20052;-71
2022/10/16 05:49:01;;;;;;;18.33;3.30;;;12.20;99.90;;;;;;5006701;28;20397;-71
2022/10/16 05:51:27;;;;;;;19.02;3.83;;;12.20;99.90;;;;;;4996975;28;20105;-71
2022/10/16 05:53:52;;;;;;;38.17;4.32;;;12.20;99.90;;;;;;4996887;28;20405;-71
2022/10/16 05:56:18;;;;;;;18.77;3.95;;;12.20;99.90;;;;;;4996304;28;20033;-71
2022/10/16 05:58:46;;;;;;;19.35;3.15;;;12.30;99.90;;;;;;4996887;28;20430;-71
2022/10/16 06:01:17;;;;;;;14.90;3.42;;;12.30;99.90;;;;;;4997109;28;20077;-71
2022/10/16 06:03:43;;;;;;;38.58;4.38;;;12.30;99.90;;;;;;4995476;28;20022;-71
2022/10/16 06:06:10;;;;;;;20.17;3.63;;;12.30;99.90;;;;;;4996327;28;20377;-71
2022/10/16 06:08:36;;;;;;;15.70;3.15;;;12.30;99.90;;;;;;4996990;28;20033;-71
2022/10/16 06:11:04;;;;;;;20.05;3.25;;;12.30;99.90;;;;;;4996835;28;20022;-71
2022/10/16 06:13:30;;;;;;;24.20;3.97;;;12.30;99.90;;;;;;4997022;28;20045;-70
2022/10/16 06:15:58;;;;;;;16.92;4.00;;;12.30;99.90;;;;;;5016389;28;20481;-71
2022/10/16 06:18:24;;;;;;;26.20;3.80;;;12.30;99.90;;;;;;5015883;28;20080;-71
2022/10/16 06:20:49;;;;;;;23.45;3.40;;;12.30;99.90;;;;;;4998418;28;20121;-70
2022/10/16 06:23:15;;;;;;;18.80;3.17;;;12.20;99.90;;;;;;4996316;28;20436;-71
2022/10/16 06:25:40;;;;;;;13.30;3.05;;;12.20;99.90;;;;;;4996393;28;20033;-71
2022/10/16 06:28:06;;;;;;;21.95;3.33;;;12.20;99.90;;;;;;4996579;28;20045;-71
2022/10/16 06:30:31;;;;;;;18.88;3.92;;;12.10;99.90;;;;;;4995833;28;20505;-70
2022/10/16 06:32:57;;;;;;;18.02;4.15;;;12.20;99.90;;;;;;4996354;28;20034;-71
2022/10/16 06:35:23;;;;;;;15.45;2.58;;;12.20;99.90;;;;;;4996227;28;20052;-71
2022/10/16 06:37:48;;;;;;;10.10;3.28;;;12.10;99.90;;;;;;4996745;28;20015;-70
2022/10/16 06:40:14;;;;;;;12.75;2.95;;;12.10;99.90;;;;;;4995683;28;20034;-70
2022/10/16 06:42:40;;;;;;;15.68;3.50;;;12.10;99.90;;;;;;4995891;28;20057;-70
2022/10/16 06:45:06;;;;;;;18.10;3.35;;;12.20;99.90;;;;;;4995473;28;20038;-71
2022/10/16 06:47:31;;;;;;;13.60;3.80;;;12.20;99.90;;;;;;4996325;28;20073;-71
2022/10/16 06:49:57;;;;;;;21.65;3.60;;;12.20;99.90;;;;;;4995965;28;20027;-70
2022/10/16 06:52:23;;;;;;;33.38;4.13;;;12.20;99.90;;;;;;5014923;28;20025;-71
2022/10/16 06:54:49;;;;;;;8.38;2.63;;;12.30;99.90;;;;;;5014869;28;20432;-71
2022/10/16 06:57:15;;;;;;;32.58;4.35;;;12.30;99.90;;;;;;5015321;28;20029;-71
2022/10/16 06:59:40;;;;;;;31.85;4.00;;;12.40;99.90;;;;;;5015315;28;20033;-71
2022/10/16 07:02:07;;;;;;;12.32;2.60;;;12.50;99.90;;;;;;5015151;28;20026;-71
2022/10/16 07:04:33;;;;;;;16.15;2.85;;;12.60;99.90;;;;;;5014818;28;20030;-71
2022/10/16 07:07:00;;;;;;;18.02;4.28;;;12.70;99.90;;;;;;5014854;28;20022;-71
2022/10/16 07:09:26;;;;;;;17.40;3.40;;;12.80;99.90;;;;;;5015154;28;20066;-71
2022/10/16 07:11:51;;;;;;;13.52;2.85;;;12.90;99.90;;;;;;5014975;28;20472;-71
2022/10/16 07:14:19;;;;;;;14.48;2.72;;;13.10;99.90;;;;;;5014936;28;20021;-71
2022/10/16 07:16:44;;;;;;;17.35;3.00;;;13.20;99.90;;;;;;5015241;28;20064;-71
2022/10/16 07:19:11;;;;;;;14.45;3.38;;;13.30;99.90;;;;;;5007432;28;20022;-71
2022/10/16 07:21:37;;;;;;;23.80;3.50;;;13.30;99.90;;;;;;4995378;28;20432;-71
2022/10/16 07:24:06;;;;;;;17.92;2.45;;;13.20;99.90;;;;;;4995408;28;20022;-70
2022/10/16 07:26:34;;;;;;;18.70;3.47;;;13.20;99.90;;;;;;4995264;28;20057;-71
2022/10/16 07:29:01;;;;;;;15.05;3.50;;;13.00;99.90;;;;;;4997838;28;20083;-70
2022/10/16 07:31:27;;;;;;;16.35;3.75;;;12.90;99.90;;;;;;5014603;28;20038;-71
2022/10/16 07:33:53;;;;;;;19.80;2.63;;;12.80;99.90;;;;;;4994107;28;20031;-71
2022/10/16 07:36:20;;;;;;;15.43;2.72;;;12.80;99.90;;;;;;4987680;28;20046;-70
2022/10/16 07:38:46;;;;;;;17.17;3.58;;;12.70;99.90;;;;;;4985474;28;20033;-71
2022/10/16 07:41:14;;;;;;;23.60;3.45;;;12.70;99.90;;;;;;4995160;28;20022;-70
2022/10/16 07:43:40;;;;;;;13.52;2.58;;;12.90;99.90;;;;;;4996056;28;20034;-70
2022/10/16 07:46:05;;;;;;;16.02;3.33;;;13.10;99.90;;;;;;4991284;28;20030;-71
2022/10/16 07:48:33;;;;;;;14.35;3.30;;;13.30;99.90;;;;;;4996905;28;20397;-72
2022/10/16 07:51:04;;;;;;;20.13;3.35;;;13.40;99.90;;;;;;4993990;28;20027;-70
2022/10/16 07:53:30;;;;;;;17.65;2.90;;;13.60;99.90;;;;;;4987115;28;20030;-70
2022/10/16 07:56:01;;;;;;;17.05;3.63;;;13.70;99.90;;;;;;4996195;28;20388;-71
2022/10/16 07:58:27;;;;;;;13.07;3.83;;;13.80;99.90;;;;;;4988262;28;20108;-70
2022/10/16 08:00:53;;;;;;;12.45;2.88;;;13.60;99.90;;;;;;4986081;28;20026;-70
2022/10/16 08:03:18;;;;;;;16.27;3.85;;;13.60;99.90;;;;;;4994811;28;20370;-69
2022/10/16 08:05:44;;;;;;;13.65;3.15;;;13.60;99.90;;;;;;4990597;28;20037;-69
2022/10/16 08:08:14;;;;;;;12.63;2.28;;;13.70;99.90;;;;;;4996734;28;20034;-70
2022/10/16 08:10:39;;;;;;;16.10;2.95;;;13.80;99.90;;;;;;4992486;28;20018;-71
2022/10/16 08:13:05;;;;;;;15.90;2.83;;;13.90;99.90;;;;;;4984313;28;20030;-70
2022/10/16 08:15:31;;;;;;;13.35;3.55;;;13.90;99.90;;;;;;4991980;28;20440;-71
2022/10/16 08:18:02;;;;;;;14.25;2.70;;;14.00;99.90;;;;;;4990637;28;20030;-71
2022/10/16 08:20:29;;;;;;;17.15;2.65;;;14.10;99.90;;;;;;4999971;28;20030;-70
2022/10/16 08:22:55;;;;;;;12.52;2.22;;;14.10;99.90;;;;;;4993386;28;20029;-70
2022/10/16 08:25:22;;;;;;;21.70;3.22;;;14.20;99.90;;;;;;4994328;28;20085;-70
2022/10/16 08:27:48;;;;;;;9.25;2.15;;;14.20;99.90;;;;;;4994155;28;20037;-71
2022/10/16 08:30:15;;;;;;;10.65;2.65;;;14.30;99.90;;;;;;4991215;28;20026;-70
2022/10/16 08:32:43;;;;;;;12.90;2.60;;;14.50;99.90;;;;;;4991765;28;20034;-70
2022/10/16 08:35:10;;;;;;;24.00;3.50;;;14.40;99.90;;;;;;4994149;28;20050;-70
2022/10/16 08:37:37;;;;;;;13.20;2.10;;;14.50;99.90;;;;;;4988569;28;20022;-71
2022/10/16 08:40:04;;;;;;;10.52;3.42;;;14.60;99.90;;;;;;4992182;28;20041;-69
2022/10/16 08:42:30;;;;;;;12.20;2.45;;;14.60;99.90;;;;;;4992296;28;20125;-70
2022/10/16 08:45:01;;;;;;;11.57;2.33;;;14.70;99.90;;;;;;4997079;28;20065;-68
2022/10/16 08:47:43;;;;;;;9.75;2.50;;;14.70;99.90;;;;;;4997436;28;22518;-67
2022/10/16 08:50:12;;;;;;;7.80;2.33;;;14.90;99.90;;;;;;4991234;28;20551;-67
2022/10/16 08:52:42;;;;;;;9.75;2.13;;;14.90;99.90;;;;;;4995311;28;20031;-67
2022/10/16 08:55:30;;;;;;;14.23;3.20;;;15.00;99.90;;;;;;4991968;28;20034;-67
2022/10/16 08:57:56;;;;;;;8.48;2.63;;;15.10;99.90;;;;;;4990968;28;20540;-68
2022/10/16 09:00:21;;;;;;;15.43;3.47;;;15.10;99.90;;;;;;4992020;28;20068;-68
2022/10/16 09:03:12;;;;;;;11.48;2.08;;;15.10;99.90;;;;;;4990538;28;20030;-67
2022/10/16 09:05:57;;;;;;;13.10;2.78;;;15.10;99.90;;;;;;4989861;28;20031;-67
2022/10/16 09:08:50;;;;;;;20.80;2.97;;;15.10;99.90;;;;;;4994550;28;20030;-68
2022/10/16 09:11:47;;;;;;;17.48;3.83;;;15.10;99.90;;;;;;4999525;28;20058;-66
2022/10/16 09:14:38;;;;;;;20.10;3.17;;;15.10;99.90;;;;;;4991934;28;20022;-67
2022/10/16 09:17:24;;;;;;;16.48;2.50;;;15.10;99.90;;;;;;4985568;28;20014;-68
2022/10/16 09:20:05;;;;;;;19.15;3.00;;;15.00;99.90;;;;;;4996735;28;20054;-68
2022/10/16 09:22:32;;;;;;;17.95;2.53;;;15.10;99.90;;;;;;4998786;28;20426;-67
2022/10/16 09:25:01;;;;;;;30.23;4.03;;;15.20;99.90;;;;;;4994483;28;20485;-67
2022/10/16 09:27:26;;;;;;;16.60;3.00;;;15.20;99.90;;;;;;4993445;28;20101;-68
2022/10/16 09:29:52;;;;;;;14.15;2.75;;;15.20;99.90;;;;;;4995728;28;20031;-67
2022/10/16 09:32:20;;;;;;;22.38;4.53;;;15.20;99.90;;;;;;4997012;28;20049;-67
2022/10/16 09:34:50;;;;;;;34.22;4.32;;;15.10;99.90;;;;;;4996695;28;20026;-68
2022/10/16 09:37:19;;;;;;;14.48;3.22;;;15.20;99.90;;;;;;4992858;28;20528;-68
2022/10/16 09:39:50;;;;;;;16.73;3.92;;;15.20;99.90;;;;;;4989488;28;20477;-69
2022/10/16 09:42:32;;;;;;;15.45;3.30;;;15.30;99.90;;;;;;5000541;28;20045;-68
2022/10/16 09:44:57;;;;;;;15.98;3.03;;;15.30;99.90;;;;;;5058577;23;20045;-69
2022/10/16 09:47:29;;;;;;;16.48;3.85;;;15.30;99.90;;;;;;5055983;28;20017;-69
2022/10/16 09:49:58;;;;;;;25.13;4.50;;;15.30;99.90;;;;;;5056396;28;20071;-69
2022/10/16 09:52:24;;;;;;;15.57;2.92;;;15.30;99.90;;;;;;5056351;28;20071;-70
2022/10/16 09:54:52;;;;;;;20.35;4.07;;;15.30;99.90;;;;;;5056655;28;20048;-70
2022/10/16 09:57:19;;;;;;;13.95;3.13;;;15.30;99.90;;;;;;5036213;28;20014;-69
2022/10/16 09:59:49;;;;;;;25.83;3.80;;;15.30;99.90;;;;;;5048269;28;20025;-69
2022/10/16 10:02:17;;;;;;;12.90;3.13;;;15.20;99.90;;;;;;5056044;28;20028;-69
2022/10/16 10:04:50;;;;;;;21.75;3.83;;;15.30;99.90;;;;;;5056074;28;20492;-69
2022/10/16 10:07:25;;;;;;;10.77;3.28;;;15.50;99.90;;;;;;5056262;28;20029;-69
2022/10/16 10:09:51;;;;;;;16.95;3.70;;;15.50;99.90;;;;;;5056130;28;20036;-69
2022/10/16 10:12:24;;;;;;;21.38;3.47;;;15.60;99.90;;;;;;5055931;28;20082;-69
2022/10/16 10:14:51;;;;;;;;;;;15.60;99.90;;;;;;5056744;28;20021;-70
2022/10/16 10:17:22;;;;;;;17.45;4.43;;;15.70;99.90;;;;;;5056911;28;19912;-70
2022/10/16 10:19:49;;;;;;;17.65;3.80;;;15.70;99.90;;;;;;5055861;28;20025;-70
2022/10/16 10:22:32;;;;;;;13.85;2.92;;;15.60;99.90;;;;;;5056216;28;20021;-70
2022/10/16 10:25:12;;;;;;;21.63;3.58;;;15.70;99.90;;;;;;5056119;28;20115;-70
2022/10/16 10:27:53;;;;;;;24.13;4.90;;;16.00;99.90;;;;;;5056240;28;20094;-70
2022/10/16 10:30:35;;;;;;;21.65;2.90;;;16.10;99.90;;;;;;5056165;28;20064;-70
2022/10/16 10:33:10;;;;;;;19.38;3.58;;;16.40;99.90;;;;;;5055167;28;20047;-69
2022/10/16 10:36:02;;;;;;;22.70;4.03;;;16.40;99.90;;;;;;5056017;28;20017;-70
2022/10/16 10:38:56;;;;;;;19.15;3.40;;;16.30;99.90;;;;;;5055912;28;20141;-70
2022/10/16 10:41:50;;;;;;;17.27;3.33;;;16.30;99.90;;;;;;5054472;28;20032;-70
2022/10/16 10:44:28;;;;;;;17.80;3.47;;;16.10;99.90;;;;;;5055681;28;20056;-69
2022/10/16 10:47:38;;;;;;;21.35;3.45;;;16.10;99.90;;;;;;5055179;28;20025;-70
2022/10/16 10:50:25;;;;;;;14.32;3.35;;;16.10;99.90;;;;;;5055700;28;20025;-69
2022/10/16 10:53:37;;;;;;;29.65;4.10;;;16.00;99.90;;;;;;5055979;28;20025;-70
2022/10/16 10:56:11;;;;;;;16.35;4.10;;;16.00;99.90;;;;;;5056786;28;20036;-70
2022/10/16 10:58:55;;;;;;;35.70;5.22;;;16.00;99.90;;;;;;5055384;28;20048;-70
2022/10/16 11:01:33;;;;;;;20.63;3.88;;;15.90;99.90;;;;;;5055581;28;20025;-70
2022/10/16 11:04:31;;;;;;;23.88;3.45;;;16.00;99.90;;;;;;5055486;28;20024;-71
2022/10/16 11:07:09;;;;;;;26.10;3.63;;;16.10;99.90;;;;;;5054897;28;20092;-70
2022/10/16 11:09:44;;;;;;;27.05;5.57;;;16.20;99.90;;;;;;5055136;28;20472;-71
2022/10/16 11:12:19;;;;;;;19.60;3.83;;;16.30;99.90;;;;;;5055862;28;20028;-71
2022/10/16 11:15:11;;;;;;;32.22;5.20;;;16.20;99.90;;;;;;5054947;28;20021;-70
2022/10/16 11:18:21;;;;;;;27.20;4.53;;;16.30;99.90;;;;;;5055446;28;20064;-71
2022/10/16 11:20:58;;;;;;;34.90;5.13;;;16.40;99.90;;;;;;5059688;28;20037;-71
2022/10/16 11:23:35;;;;;;;25.17;4.40;;;16.40;99.90;;;;;;5055254;28;20036;-71
2022/10/16 11:26:11;;;;;;;20.10;3.92;;;16.30;99.90;;;;;;5054464;28;20060;-70
2022/10/16 11:28:49;;;;;;;28.95;5.18;;;16.40;99.90;;;;;;5055606;28;20028;-71
2022/10/16 11:31:28;;;;;;;29.77;4.60;;;16.40;99.90;;;;;;5054748;28;20029;-71
2022/10/16 11:34:11;;;;;;;33.30;4.25;;;16.30;99.90;;;;;;5053521;28;20060;-71
2022/10/16 11:36:42;;;;;;;37.08;5.10;;;16.40;99.90;;;;;;5055136;28;20100;-71
2022/10/16 11:39:19;;;;;;;25.83;4.93;;;16.50;99.90;;;;;;5054318;28;20445;-71
2022/10/16 11:42:07;;;;;;;31.58;5.25;;;16.30;99.90;;;;;;5053346;28;20025;-71
2022/10/16 11:44:41;;;;;;;31.15;4.80;;;16.10;99.90;;;;;;5054553;28;20040;-71
2022/10/16 11:47:28;;;;;;;23.67;4.88;;;15.90;99.90;;;;;;5054709;28;20039;-70
2022/10/16 11:50:04;;;;;;;27.60;3.53;;;15.70;99.90;;;;;;5053986;28;20029;-70
2022/10/16 11:52:41;;;;;;;31.55;4.57;;;15.40;99.90;;;;;;5054306;28;20025;-70
2022/10/16 11:55:20;;;;;;;42.17;6.68;;;15.20;99.90;;;;;;5054594;28;20530;-70
2022/10/16 11:57:57;;;;;;;33.42;4.90;;;14.90;99.90;;;;;;5054508;28;20052;-70
2022/10/16 12:00:47;;;;;;;33.22;6.18;;;14.60;99.90;;;;;;5053641;28;20021;-69
2022/10/16 12:03:41;;;;;;;28.15;4.75;;;14.60;99.90;;;;;;5054225;28;20024;-69
2022/10/16 12:06:43;;;;;;;21.55;4.43;;;14.50;99.90;;;;;;5063136;28;20399;-70
2022/10/16 12:09:30;;;;;;;34.47;5.25;;;14.40;99.90;;;;;;5053714;28;20025;-70
2022/10/16 12:11:56;;;;;;;29.40;5.35;;;14.30;99.90;;;;;;5054092;28;20396;-70
2022/10/16 12:14:42;;;;;;;44.70;5.03;;;14.40;99.90;;;;;;5053715;28;20025;-70
2022/10/16 12:17:26;;;;;;;46.90;6.28;;;14.40;99.90;;;;;;5054121;28;20087;-69
2022/10/16 12:20:19;;;;;;;43.08;6.47;;;14.50;99.90;;;;;;5052104;28;20028;-70
2022/10/16 12:22:57;;;;;;;24.52;4.15;;;14.60;99.90;;;;;;5053804;28;20067;-69
2022/10/16 12:25:37;;;;;;;46.47;4.47;;;14.70;99.90;;;;;;5052552;28;20049;-70
2022/10/16 12:28:20;;;;;;;37.35;4.88;;;15.20;99.90;;;;;;5053753;28;20519;-69
2022/10/16 12:31:00;;;;;;;39.03;6.90;;;15.70;99.90;;;;;;5053554;28;20036;-69
2022/10/16 12:33:29;;;;;;;38.97;6.10;;;16.10;99.90;;;;;;5053696;28;20021;-70
2022/10/16 12:35:56;;;;;;;44.95;6.82;;;16.50;99.90;;;;;;5054083;28;20482;-70
2022/10/16 12:38:27;;;;;;;44.85;6.53;;;16.80;99.90;;;;;;5053496;28;20027;-70
2022/10/16 12:41:03;;;;;;;36.92;5.25;;;17.20;99.90;;;;;;5053171;28;20013;-70
2022/10/16 12:43:38;;;;;;;22.75;4.63;;;17.10;99.90;;;;;;5052692;28;20029;-69
2022/10/16 12:46:08;;;;;;;49.08;7.05;;;17.10;99.90;;;;;;5053647;28;20048;-70
2022/10/16 12:48:34;;;;;;;36.20;5.05;;;17.50;99.90;;;;;;5053507;28;20033;-70
2022/10/16 12:51:11;;;;;;;36.20;5.72;;;17.30;99.90;;;;;;5053660;28;20055;-70
2022/10/16 12:53:37;;;;;;;38.90;5.88;;;17.20;99.90;;;;;;5052768;28;20032;-70
2022/10/16 12:56:25;;;;;;;42.45;6.25;;;17.40;99.90;;;;;;5053787;28;20028;-70